createdAt,value
2018-05-08T00:00:23.125Z,81.4
2018-05-08T00:01:33.105Z,82.35
2018-05-08T00:02:42.559Z,81.93
2018-05-08T00:03:52.548Z,81.84
2018-05-08T00:05:02.519Z,82.03
2018-05-08T00:06:12.512Z,82.98
2018-05-08T00:07:22.270Z,82.98
2018-05-08T00:08:31.987Z,82.12
2018-05-08T00:09:41.949Z,82.7
2018-05-08T00:10:52.006Z,82.22
2018-05-08T00:12:01.729Z,82.98
2018-05-08T00:13:11.700Z,82.7
2018-05-08T00:14:21.660Z,82.51
2018-05-08T00:15:31.359Z,82.31
2018-05-08T00:16:41.368Z,82.41
2018-05-08T00:17:50.817Z,82.6
2018-05-08T00:19:00.268Z,82.89
2018-05-08T00:20:09.972Z,82.89
2018-05-08T00:21:19.945Z,82.7
2018-05-08T00:22:29.665Z,82.22
2018-05-08T00:23:39.641Z,83.37
2018-05-08T00:24:49.605Z,83.56
2018-05-08T00:25:59.318Z,83.37
2018-05-08T00:27:09.292Z,83.56
2018-05-08T00:28:19.264Z,83.37
2018-05-08T00:29:29.233Z,82.79
2018-05-08T00:30:39.199Z,83.65
2018-05-08T00:31:49.184Z,83.17
2018-05-08T00:32:59.174Z,83.84
2018-05-08T00:34:08.893Z,83.56
2018-05-08T00:35:18.355Z,83.9
2018-05-08T00:36:28.392Z,84.03
2018-05-08T00:37:38.361Z,83.42
2018-05-08T00:38:48.329Z,84.76
2018-05-08T00:39:58.309Z,85.33
2018-05-08T00:41:08.273Z,84.47
2018-05-08T00:42:18.243Z,84.28
2018-05-08T00:43:28.210Z,84.56
2018-05-08T00:44:38.174Z,85.24
2018-05-08T00:45:48.369Z,85.14
2018-05-08T00:46:58.070Z,84.85
2018-05-08T00:48:07.850Z,85.05
2018-05-08T00:49:17.823Z,85.81
2018-05-08T00:50:27.549Z,85.42
2018-05-08T00:51:37.264Z,85.52
2018-05-08T00:52:47.238Z,85.05
2018-05-08T00:53:57.207Z,86.1
2018-05-08T00:55:07.167Z,85.24
2018-05-08T00:56:17.134Z,85.05
2018-05-08T00:57:27.108Z,84.95
2018-05-08T00:58:37.085Z,85.42
2018-05-08T00:59:46.802Z,86
2018-05-08T01:00:56.786Z,86
2018-05-08T01:02:06.501Z,85.9
2018-05-08T01:03:16.220Z,86.29
2018-05-08T01:04:25.923Z,85.81
2018-05-08T01:05:35.708Z,85.48
2018-05-08T01:06:45.431Z,85.48
2018-05-08T01:07:55.142Z,85.96
2018-05-08T01:09:05.119Z,85.9
2018-05-08T01:10:14.855Z,86.24
2018-05-08T01:11:24.830Z,86.47
2018-05-08T01:12:34.294Z,86.82
2018-05-08T01:13:44.013Z,86.63
2018-05-08T01:14:53.724Z,86.82
2018-05-08T01:16:03.692Z,85.96
2018-05-08T01:17:13.414Z,86.34
2018-05-08T01:18:23.396Z,86.15
2018-05-08T01:19:33.371Z,87.01
2018-05-08T01:20:43.114Z,86.34
2018-05-08T01:21:53.094Z,86.34
2018-05-08T01:23:02.816Z,87.1
2018-05-08T01:24:12.802Z,87.2
2018-05-08T01:25:22.773Z,87.1
2018-05-08T01:26:32.485Z,86.91
2018-05-08T01:27:42.281Z,87.48
2018-05-08T01:28:52.263Z,87.01
2018-05-08T01:30:02.228Z,87.01
2018-05-08T01:31:11.952Z,86.34
2018-05-08T01:32:21.927Z,86.72
2018-05-08T01:33:31.648Z,86.82
2018-05-08T01:34:41.614Z,87.39
2018-05-08T01:35:51.577Z,88.15
2018-05-08T01:37:01.553Z,87.87
2018-05-08T01:38:11.527Z,87.58
2018-05-08T01:39:20.989Z,87.77
2018-05-08T01:40:30.970Z,88.34
2018-05-08T01:41:41.041Z,88.15
2018-05-08T01:42:51.011Z,87.29
2018-05-08T01:44:00.979Z,87.58
2018-05-08T01:45:10.715Z,87.68
2018-05-08T01:46:20.423Z,87.82
2018-05-08T01:47:30.395Z,87.44
2018-05-08T01:48:39.594Z,88.2
2018-05-08T01:49:49.294Z,88.68
2018-05-08T01:50:59.284Z,88.68
2018-05-08T01:52:09.259Z,88.3
2018-05-08T01:53:19.235Z,88.78
2018-05-08T01:54:28.938Z,88.68
2018-05-08T01:55:38.913Z,88.4
2018-05-08T01:56:48.620Z,88.68
2018-05-08T01:57:58.602Z,88.59
2018-05-08T01:59:08.574Z,88.87
2018-05-08T02:00:18.558Z,89.35
2018-05-08T02:01:28.565Z,88.87
2018-05-08T02:02:38.275Z,88.59
2018-05-08T02:03:48.239Z,89.35
2018-05-08T02:04:58.214Z,89.92
2018-05-08T02:06:08.197Z,89.92
2018-05-08T02:07:18.167Z,89.83
2018-05-08T02:08:28.153Z,89.54
2018-05-08T02:09:37.869Z,89.83
2018-05-08T02:10:47.843Z,89.64
2018-05-08T02:11:57.817Z,89.92
2018-05-08T02:13:07.531Z,90.02
2018-05-08T02:14:16.989Z,89.92
2018-05-08T02:15:26.709Z,90.21
2018-05-08T02:16:36.424Z,90.4
2018-05-08T02:17:45.874Z,90.5
2018-05-08T02:18:55.854Z,90.11
2018-05-08T02:20:05.565Z,90.21
2018-05-08T02:21:15.539Z,90.11
2018-05-08T02:22:25.256Z,90.64
2018-05-08T02:23:34.972Z,90.59
2018-05-08T02:24:44.430Z,90.69
2018-05-08T02:25:54.478Z,90.73
2018-05-08T02:27:04.795Z,90.64
2018-05-08T02:28:14.763Z,90.5
2018-05-08T02:29:24.472Z,91.16
2018-05-08T02:30:34.495Z,91.21
2018-05-08T02:31:44.481Z,91.74
2018-05-08T02:32:54.199Z,91.5
2018-05-08T02:34:04.186Z,91.78
2018-05-08T02:35:14.158Z,91.5
2018-05-08T02:36:23.624Z,91.78
2018-05-08T02:37:33.598Z,91.5
2018-05-08T02:38:43.311Z,91.5
2018-05-08T02:39:53.290Z,92.41
2018-05-08T02:41:03.267Z,92.26
2018-05-08T02:42:13.245Z,92.26
2018-05-08T02:43:22.960Z,92.46
2018-05-08T02:44:32.975Z,92.74
2018-05-08T02:45:42.940Z,93.12
2018-05-08T02:46:52.675Z,92.93
2018-05-08T02:48:02.662Z,92.74
2018-05-08T02:49:12.123Z,92.74
2018-05-08T02:50:22.091Z,93.02
2018-05-08T02:51:32.077Z,92.83
2018-05-08T02:52:42.063Z,92.46
2018-05-08T02:53:52.058Z,92.74
2018-05-08T02:55:02.064Z,92.55
2018-05-08T02:56:12.054Z,92.36
2018-05-08T02:57:22.027Z,93.12
2018-05-08T02:58:32.001Z,92.74
2018-05-08T02:59:41.968Z,93.51
2018-05-08T03:00:51.688Z,93.51
2018-05-08T03:02:01.855Z,93.02
2018-05-08T03:03:11.827Z,93.31
2018-05-08T03:04:21.546Z,93.02
2018-05-08T03:05:31.577Z,93.41
2018-05-08T03:06:41.299Z,93.12
2018-05-08T03:07:51.264Z,93.36
2018-05-08T03:09:01.234Z,94.17
2018-05-08T03:10:11.301Z,94.56
2018-05-08T03:11:21.303Z,93.36
2018-05-08T03:12:31.280Z,94.41
2018-05-08T03:13:41.500Z,93.98
2018-05-08T03:14:51.475Z,94.03
2018-05-08T03:16:01.445Z,93.98
2018-05-08T03:17:11.431Z,94.12
2018-05-08T03:18:21.420Z,95.03
2018-05-08T03:19:31.143Z,95.17
2018-05-08T03:20:41.132Z,94.98
2018-05-08T03:21:51.107Z,95.27
2018-05-08T03:23:00.814Z,95.08
2018-05-08T03:24:10.518Z,94.89
2018-05-08T03:25:20.483Z,95.56
2018-05-08T03:26:30.441Z,94.98
2018-05-08T03:27:40.212Z,95.37
2018-05-08T03:28:50.186Z,95.37
2018-05-08T03:30:00.171Z,94.89
2018-05-08T03:31:10.145Z,95.17
2018-05-08T03:32:20.138Z,95.08
2018-05-08T03:33:29.848Z,95.17
2018-05-08T03:34:39.817Z,95.17
2018-05-08T03:35:49.784Z,95.27
2018-05-08T03:36:59.747Z,94.98
2018-05-08T03:38:09.466Z,95.27
2018-05-08T03:39:18.915Z,95.46
2018-05-08T03:40:28.622Z,95.65
2018-05-08T03:41:38.595Z,95.08
2018-05-08T03:42:48.560Z,95.27
2018-05-08T03:43:58.565Z,96.32
2018-05-08T03:45:08.268Z,95.27
2018-05-08T03:46:18.244Z,95.27
2018-05-08T03:47:27.964Z,95.27
2018-05-08T03:48:37.679Z,95.17
2018-05-08T03:49:47.660Z,95.08
2018-05-08T03:50:57.108Z,95.17
2018-05-08T03:52:06.807Z,95.37
2018-05-08T03:53:16.778Z,95.46
2018-05-08T03:54:26.747Z,95.37
2018-05-08T03:55:36.713Z,95.27
2018-05-08T03:56:46.435Z,95.17
2018-05-08T03:57:56.144Z,95.75
2018-05-08T03:59:05.863Z,95.75
2018-05-08T04:00:15.572Z,95.84
2018-05-08T04:01:25.297Z,95.27
2018-05-08T04:02:35.276Z,95.08
2018-05-08T04:03:45.249Z,94.89
2018-05-08T04:04:55.225Z,95.37
2018-05-08T04:06:05.202Z,95.41
2018-05-08T04:07:14.908Z,96.13
2018-05-08T04:08:25.069Z,96.03
2018-05-08T04:09:35.280Z,95.27
2018-05-08T04:10:45.254Z,95.08
2018-05-08T04:11:55.238Z,95.51
2018-05-08T04:13:04.953Z,95.37
2018-05-08T04:14:14.660Z,95.27
2018-05-08T04:15:24.391Z,95.41
2018-05-08T04:16:34.327Z,96.17
2018-05-08T04:17:44.297Z,95.61
2018-05-08T04:18:53.750Z,95.12
2018-05-08T04:20:03.714Z,95.32
2018-05-08T04:21:13.476Z,95.51
2018-05-08T04:22:23.455Z,95.22
2018-05-08T04:23:33.445Z,95.32
2018-05-08T04:24:43.681Z,95.03
2018-05-08T04:25:53.642Z,95.32
2018-05-08T04:27:03.631Z,94.65
2018-05-08T04:28:13.606Z,94.93
2018-05-08T04:29:23.584Z,95.03
2018-05-08T04:30:33.548Z,95.12
2018-05-08T04:31:43.511Z,94.56
2018-05-08T04:32:53.485Z,94.46
2018-05-08T04:34:03.203Z,94.07
2018-05-08T04:35:13.186Z,94.27
2018-05-08T04:36:23.256Z,94.6
2018-05-08T04:37:33.025Z,94.41
2018-05-08T04:38:42.738Z,93.79
2018-05-08T04:39:52.722Z,93.74
2018-05-08T04:41:02.687Z,93.65
2018-05-08T04:42:12.665Z,94.12
2018-05-08T04:43:22.381Z,93.26
2018-05-08T04:44:32.346Z,93.65
2018-05-08T04:45:42.322Z,93.84
2018-05-08T04:46:52.043Z,93.65
2018-05-08T04:48:01.790Z,93.26
2018-05-08T04:49:11.762Z,93.65
2018-05-08T04:50:21.768Z,93.26
2018-05-08T04:51:31.483Z,93.17
2018-05-08T04:52:41.453Z,93.46
2018-05-08T04:53:51.418Z,92.97
2018-05-08T04:55:01.398Z,92.79
2018-05-08T04:56:11.117Z,92.79
2018-05-08T04:57:21.131Z,92.93
2018-05-08T04:58:31.091Z,92.79
2018-05-08T04:59:41.059Z,92.79
2018-05-08T05:00:51.032Z,92.5
2018-05-08T05:02:00.754Z,92.31
2018-05-08T05:03:10.736Z,92.55
2018-05-08T05:04:20.197Z,91.97
2018-05-08T05:05:29.905Z,92.16
2018-05-08T05:06:39.886Z,92.36
2018-05-08T05:07:49.874Z,91.5
2018-05-08T05:08:59.857Z,92.16
2018-05-08T05:10:09.836Z,92.16
2018-05-08T05:11:19.820Z,92.16
2018-05-08T05:12:29.799Z,91.4
2018-05-08T05:13:39.778Z,91.78
2018-05-08T05:14:49.754Z,91.11
2018-05-08T05:15:59.736Z,91.21
2018-05-08T05:17:09.716Z,91.11
2018-05-08T05:18:19.717Z,91.21
2018-05-08T05:19:29.435Z,90.97
2018-05-08T05:20:39.410Z,90.97
2018-05-08T05:21:49.379Z,90.88
2018-05-08T05:22:59.174Z,90.97
2018-05-08T05:24:08.901Z,90.78
2018-05-08T05:25:18.691Z,90.49
2018-05-08T05:26:28.667Z,90.2
2018-05-08T05:27:38.655Z,90.2
2018-05-08T05:28:48.900Z,90.11
2018-05-08T05:29:58.884Z,89.73
2018-05-08T05:31:08.896Z,89.82
2018-05-08T05:32:18.887Z,90.16
2018-05-08T05:33:28.096Z,90.06
2018-05-08T05:34:38.080Z,89.67
2018-05-08T05:35:48.049Z,89.39
2018-05-08T05:36:58.019Z,89.67
2018-05-08T05:38:08.083Z,89.01
2018-05-08T05:39:18.044Z,88.91
2018-05-08T05:40:28.007Z,88.53
2018-05-08T05:41:37.727Z,88.34
2018-05-08T05:42:47.701Z,88.24
2018-05-08T05:43:57.343Z,88.48
2018-05-08T05:45:07.066Z,87.52
2018-05-08T05:46:17.080Z,87.81
2018-05-08T05:47:27.034Z,87.62
2018-05-08T05:48:37.044Z,87.23
2018-05-08T05:49:46.793Z,86.85
2018-05-08T05:50:56.779Z,86.57
2018-05-08T05:52:06.819Z,86.66
2018-05-08T05:53:16.864Z,86.08
2018-05-08T05:54:26.853Z,86.13
2018-05-08T05:55:36.561Z,85.08
2018-05-08T05:56:46.577Z,84.88
2018-05-08T05:57:56.292Z,84.79
2018-05-08T05:59:06.299Z,84.98
2018-05-08T06:00:16.313Z,84.22
2018-05-08T06:01:26.285Z,84.22
2018-05-08T06:02:36.348Z,83.97
2018-05-08T06:03:46.344Z,83.78
2018-05-08T06:04:56.324Z,83.39
2018-05-08T06:06:05.791Z,83.59
2018-05-08T06:07:15.738Z,83.01
2018-05-08T06:08:25.719Z,83.01
2018-05-08T06:09:35.436Z,83.01
2018-05-08T06:10:45.437Z,82.63
2018-05-08T06:11:55.231Z,82.15
2018-05-08T06:13:05.754Z,82.76
2018-05-08T06:14:15.482Z,82.09
2018-05-08T06:15:25.479Z,82.09
2018-05-08T06:16:35.194Z,82.09
2018-05-08T06:17:45.185Z,82
2018-05-08T06:18:55.167Z,81.52
2018-05-08T06:20:04.901Z,81.23
2018-05-08T06:21:14.899Z,81.52
2018-05-08T06:22:24.630Z,81.13
2018-05-08T06:23:34.365Z,80.47
2018-05-08T06:24:43.833Z,80.66
2018-05-08T06:25:53.296Z,80.32
2018-05-08T06:27:03.267Z,80.03
2018-05-08T06:28:13.230Z,79.83
2018-05-08T06:29:23.234Z,80.03
2018-05-08T06:30:33.232Z,79.55
2018-05-08T06:31:43.218Z,79.64
2018-05-08T06:32:53.211Z,79.64
2018-05-08T06:34:03.225Z,79.16
2018-05-08T06:35:12.961Z,79.16
2018-05-08T06:36:22.949Z,79.21
2018-05-08T06:37:32.924Z,78.53
2018-05-08T06:38:42.585Z,78.53
2018-05-08T06:39:52.371Z,78.63
2018-05-08T06:41:02.665Z,78.34
2018-05-08T06:42:12.691Z,77.48
2018-05-08T06:43:22.701Z,77.86
2018-05-08T06:44:32.683Z,77.76
2018-05-08T06:45:42.702Z,77.76
2018-05-08T06:46:52.679Z,76.75
2018-05-08T06:48:02.926Z,76.42
2018-05-08T06:49:12.661Z,76.52
2018-05-08T06:50:22.650Z,76.56
2018-05-08T06:51:32.656Z,76.46
2018-05-08T06:52:42.146Z,77.13
2018-05-08T06:53:51.903Z,77.23
2018-05-08T06:55:01.729Z,76.84
2018-05-08T06:56:11.856Z,77.04
2018-05-08T06:57:21.905Z,75.79
2018-05-08T06:58:31.922Z,75.5
2018-05-08T06:59:41.944Z,75.54
2018-05-08T07:00:51.953Z,74.44
2018-05-08T07:02:01.700Z,73.52
2018-05-08T07:03:11.705Z,73.72
2018-05-08T07:04:21.449Z,74.39
2018-05-08T07:05:31.445Z,74.01
2018-05-08T07:06:41.657Z,73.72
2018-05-08T07:07:51.634Z,73.72
2018-05-08T07:09:01.644Z,74.29
2018-05-08T07:10:11.451Z,73.62
2018-05-08T07:11:21.536Z,73.91
2018-05-08T07:12:31.551Z,73.37
2018-05-08T07:13:41.682Z,73.08
2018-05-08T07:14:51.670Z,73.37
2018-05-08T07:16:02.073Z,73.27
2018-05-08T07:17:12.988Z,73.08
2018-05-08T07:18:22.997Z,72.02
2018-05-08T07:19:32.726Z,72.02
2018-05-08T07:20:42.712Z,72.06
2018-05-08T07:21:52.678Z,70.9
2018-05-08T07:23:02.407Z,70.04
2018-05-08T07:24:12.410Z,70.14
2018-05-08T07:25:22.513Z,70.72
2018-05-08T07:26:32.224Z,71.1
2018-05-08T07:27:42.192Z,71.29
2018-05-08T07:28:51.917Z,71
2018-05-08T07:30:02.060Z,70.33
2018-05-08T07:31:12.406Z,69.02
2018-05-08T07:32:22.138Z,69.6
2018-05-08T07:33:32.123Z,68.25
2018-05-08T07:34:42.114Z,68.35
2018-05-08T07:35:52.101Z,67.77
2018-05-08T07:37:02.109Z,68.35
2018-05-08T07:38:12.127Z,68.25
2018-05-08T07:39:22.545Z,67.77
2018-05-08T07:40:32.294Z,67.77
2018-05-08T07:41:41.751Z,66.71
2018-05-08T07:42:51.733Z,66.27
2018-05-08T07:44:01.457Z,65.11
2018-05-08T07:45:10.918Z,64.92
2018-05-08T07:46:20.659Z,65.05
2018-05-08T07:47:30.639Z,64.82
2018-05-08T07:48:40.622Z,64.18
2018-05-08T07:49:50.100Z,63.41
2018-05-08T07:51:00.081Z,63.51
2018-05-08T07:52:10.101Z,63.7
2018-05-08T07:53:20.273Z,63.22
2018-05-08T07:54:30.388Z,63.22
2018-05-08T07:55:40.152Z,62.77
2018-05-08T07:56:50.141Z,62
2018-05-08T07:57:59.876Z,62.09
2018-05-08T07:59:09.874Z,61.71
2018-05-08T08:00:19.612Z,61.04
2018-05-08T08:01:29.602Z,61.04
2018-05-08T08:02:39.588Z,60.07
2018-05-08T08:03:49.588Z,60.1
2018-05-08T08:04:59.304Z,60.1
2018-05-08T08:06:09.056Z,59.04
2018-05-08T08:07:19.057Z,59.62
2018-05-08T08:08:28.819Z,58.95
2018-05-08T08:09:38.554Z,58.17
2018-05-08T08:10:48.782Z,57.98
2018-05-08T08:11:58.804Z,57.53
2018-05-08T08:13:08.559Z,57.53
2018-05-08T08:14:18.325Z,57.53
2018-05-08T08:15:28.049Z,57.34
2018-05-08T08:16:37.773Z,56.85
2018-05-08T08:17:47.803Z,56.98
2018-05-08T08:18:57.540Z,56.98
2018-05-08T08:20:07.528Z,56.98
2018-05-08T08:21:17.534Z,56.88
2018-05-08T08:22:27.549Z,56.59
2018-05-08T08:23:37.548Z,55.73
2018-05-08T08:24:47.395Z,54.76
2018-05-08T08:25:57.413Z,54.4
2018-05-08T08:27:07.415Z,54.21
2018-05-08T08:28:17.418Z,53.83
2018-05-08T08:29:27.413Z,53.73
2018-05-08T08:30:37.397Z,52.01
2018-05-08T08:31:47.124Z,51.15
2018-05-08T08:32:57.164Z,49.15
2018-05-08T08:34:07.133Z,48.08
2018-05-08T08:35:16.906Z,46.64
2018-05-08T08:36:26.628Z,46.37
2018-05-08T08:37:36.612Z,46.3
2018-05-08T08:38:46.604Z,46.1
2018-05-08T08:39:56.358Z,45.83
2018-05-08T08:41:06.367Z,45.18
2018-05-08T08:42:16.359Z,45.66
2018-05-08T08:43:25.806Z,45.47
2018-05-08T08:44:35.861Z,45.01
2018-05-08T08:45:45.884Z,44.35
2018-05-08T08:46:55.397Z,43.31
2018-05-08T08:48:05.401Z,43.12
2018-05-08T08:49:15.407Z,42.63
2018-05-08T08:50:25.635Z,43.31
2018-05-08T08:51:35.417Z,42.14
2018-05-08T08:52:45.149Z,41.88
2018-05-08T08:53:55.170Z,42.17
2018-05-08T08:55:05.010Z,41.58
2018-05-08T08:56:15.058Z,40.52
2018-05-08T08:57:24.797Z,39.76
2018-05-08T08:58:34.532Z,38.5
2018-05-08T08:59:44.265Z,38.5
2018-05-08T09:00:54.278Z,38.6
2018-05-08T09:02:03.755Z,38.31
2018-05-08T09:03:13.779Z,38.89
2018-05-08T09:04:23.772Z,37.82
2018-05-08T09:05:33.518Z,37.53
2018-05-08T09:06:43.534Z,38.6
2018-05-08T09:07:53.525Z,39.55
2018-05-08T09:09:03.522Z,38.87
2018-05-08T09:10:13.535Z,38.39
2018-05-08T09:11:23.358Z,37.73
2018-05-08T09:12:33.325Z,37.43
2018-05-08T09:13:43.067Z,37.43
2018-05-08T09:14:52.808Z,36.68
2018-05-08T09:16:02.806Z,35.92
2018-05-08T09:17:12.823Z,35.72
2018-05-08T09:18:22.825Z,35.64
2018-05-08T09:19:32.846Z,35.17
2018-05-08T09:20:42.913Z,35.58
2018-05-08T09:21:52.639Z,36.24
2018-05-08T09:23:02.380Z,34.8
2018-05-08T09:24:12.388Z,34.42
2018-05-08T09:25:22.376Z,34.69
2018-05-08T09:26:32.112Z,34.98
2018-05-08T09:27:42.197Z,34.98
2018-05-08T09:28:52.314Z,34.67
2018-05-08T09:30:02.048Z,35.55
2018-05-08T09:31:12.061Z,35.16
2018-05-08T09:32:22.071Z,35.08
2018-05-08T09:33:32.079Z,34.59
2018-05-08T09:34:42.077Z,34.79
2018-05-08T09:35:52.079Z,34.59
2018-05-08T09:37:01.813Z,34.4
2018-05-08T09:38:11.817Z,34.11
2018-05-08T09:39:21.831Z,33.23
2018-05-08T09:40:31.579Z,34.3
2018-05-08T09:41:41.582Z,33.93
2018-05-08T09:42:51.337Z,33.06
2018-05-08T09:44:01.369Z,32.76
2018-05-08T09:45:11.377Z,33.34
2018-05-08T09:46:21.411Z,32.28
2018-05-08T09:47:31.428Z,32.68
2018-05-08T09:48:41.184Z,32.76
2018-05-08T09:49:51.337Z,32.76
2018-05-08T09:51:01.084Z,32.78
2018-05-08T09:52:10.840Z,32.02
2018-05-08T09:53:20.867Z,31.82
2018-05-08T09:54:30.622Z,31.63
2018-05-08T09:55:40.369Z,31.22
2018-05-08T09:56:50.387Z,30.15
2018-05-08T09:58:00.401Z,30.22
2018-05-08T09:59:10.154Z,29.64
2018-05-08T10:00:19.894Z,30.01
2018-05-08T10:01:29.648Z,29.82
2018-05-08T10:02:39.660Z,30.38
2018-05-08T10:03:49.666Z,30.68
2018-05-08T10:04:59.683Z,31.16
2018-05-08T10:06:09.430Z,31.26
2018-05-08T10:07:19.191Z,30.98
2018-05-08T10:08:29.258Z,30.79
2018-05-08T10:09:39.007Z,31.47
2018-05-08T10:10:49.034Z,31.47
2018-05-08T10:11:59.035Z,30.9
2018-05-08T10:13:09.065Z,30.72
2018-05-08T10:14:19.065Z,30.14
2018-05-08T10:15:28.810Z,29.66
2018-05-08T10:16:38.553Z,29.38
2018-05-08T10:17:48.298Z,29.78
2018-05-08T10:18:58.540Z,29.39
2018-05-08T10:20:08.288Z,29.47
2018-05-08T10:21:18.047Z,29.66
2018-05-08T10:22:27.803Z,29.57
2018-05-08T10:23:37.538Z,30.04
2018-05-08T10:24:47.307Z,29.65
2018-05-08T10:25:57.316Z,30.22
2018-05-08T10:27:07.367Z,29.16
2018-05-08T10:28:17.377Z,29.57
2018-05-08T10:29:27.391Z,28.32
2018-05-08T10:30:37.161Z,29.19
2018-05-08T10:31:46.681Z,29.39
2018-05-08T10:32:56.875Z,29.38
2018-05-08T10:34:07.114Z,29.66
2018-05-08T10:35:17.111Z,30.15
2018-05-08T10:36:26.599Z,30.05
2018-05-08T10:37:36.614Z,30.17
2018-05-08T10:38:46.616Z,29.88
2018-05-08T10:39:56.622Z,29.58
2018-05-08T10:41:06.629Z,29.88
2018-05-08T10:42:16.621Z,29.86
2018-05-08T10:43:26.640Z,30.35
2018-05-08T10:44:36.647Z,29.76
2018-05-08T10:45:46.127Z,30.07
2018-05-08T10:46:56.134Z,28.92
2018-05-08T10:48:05.871Z,28.64
2018-05-08T10:49:15.862Z,28.34
2018-05-08T10:50:25.877Z,28.55
2018-05-08T10:51:35.887Z,28.07
2018-05-08T10:52:45.941Z,27.59
2018-05-08T10:53:55.931Z,27.69
2018-05-08T10:55:05.661Z,28.26
2018-05-08T10:56:15.445Z,28.45
2018-05-08T10:57:25.466Z,28.64
2018-05-08T10:58:35.478Z,28.26
2018-05-08T10:59:45.467Z,28.36
2018-05-08T11:00:55.218Z,27.89
2018-05-08T11:02:05.229Z,28.16
2018-05-08T11:03:15.224Z,28.08
2018-05-08T11:04:24.692Z,27.9
2018-05-08T11:05:34.412Z,27.51
2018-05-08T11:06:44.412Z,27.91
2018-05-08T11:07:54.180Z,27.72
2018-05-08T11:09:03.929Z,26.93
2018-05-08T11:10:14.035Z,26.66
2018-05-08T11:11:24.067Z,26.86
2018-05-08T11:12:34.155Z,26.37
2018-05-08T11:13:44.244Z,25.99
2018-05-08T11:14:54.234Z,26.86
2018-05-08T11:16:04.503Z,27.69
2018-05-08T11:17:14.496Z,28.34
2018-05-08T11:18:24.242Z,29.13
2018-05-08T11:19:34.322Z,29.11
2018-05-08T11:20:44.437Z,29.13
2018-05-08T11:21:54.448Z,29.22
2018-05-08T11:23:04.445Z,29.71
2018-05-08T11:24:14.468Z,30.36
2018-05-08T11:25:24.472Z,31.13
2018-05-08T11:26:34.679Z,30.07
2018-05-08T11:27:44.775Z,29.89
2018-05-08T11:28:54.787Z,29.61
2018-05-08T11:30:04.522Z,29.79
2018-05-08T11:31:14.576Z,29.52
2018-05-08T11:32:24.597Z,30.39
2018-05-08T11:33:34.358Z,29.6
2018-05-08T11:34:44.583Z,29.33
2018-05-08T11:35:54.698Z,29.24
2018-05-08T11:37:04.868Z,29.24
2018-05-08T11:38:15.064Z,28.67
2018-05-08T11:39:25.324Z,27.91
2018-05-08T11:40:35.022Z,27.91
2018-05-08T11:41:44.762Z,27.62
2018-05-08T11:42:54.770Z,28.39
2018-05-08T11:44:04.805Z,28.47
2018-05-08T11:45:14.805Z,29.43
2018-05-08T11:46:24.561Z,29.92
2018-05-08T11:47:34.545Z,29.53
2018-05-08T11:48:44.555Z,29.14
2018-05-08T11:49:54.371Z,29.93
2018-05-08T11:51:04.576Z,29.83
2018-05-08T11:52:14.565Z,30.31
2018-05-08T11:53:24.576Z,31.07
2018-05-08T11:54:34.323Z,30.77
2018-05-08T11:55:44.340Z,30.98
2018-05-08T11:56:54.078Z,30.78
2018-05-08T11:58:04.071Z,30.49
2018-05-08T11:59:14.061Z,30.03
2018-05-08T12:00:23.821Z,29.75
2018-05-08T12:01:33.822Z,29.75
2018-05-08T12:02:43.458Z,29.93
2018-05-08T12:03:53.216Z,29.83
2018-05-08T12:05:03.288Z,29.46
2018-05-08T12:06:13.299Z,29.56
2018-05-08T12:07:23.318Z,29.46
2018-05-08T12:08:33.320Z,29.18
2018-05-08T12:09:43.344Z,29.47
2018-05-08T12:10:53.355Z,29.66
2018-05-08T12:12:03.355Z,29.95
2018-05-08T12:13:13.366Z,28.5
2018-05-08T12:14:23.157Z,28.61
2018-05-08T12:15:33.334Z,28.59
2018-05-08T12:16:43.109Z,29.27
2018-05-08T12:17:53.123Z,29.07
2018-05-08T12:19:02.887Z,28.61
2018-05-08T12:20:12.975Z,28.52
2018-05-08T12:21:23.035Z,28.25
2018-05-08T12:22:32.800Z,27.66
2018-05-08T12:23:42.809Z,27.2
2018-05-08T12:24:52.821Z,27.29
2018-05-08T12:26:02.830Z,27.39
2018-05-08T12:27:12.607Z,27.69
2018-05-08T12:28:22.616Z,27.5
2018-05-08T12:29:32.380Z,26.72
2018-05-08T12:30:42.476Z,27.03
2018-05-08T12:31:52.569Z,27.39
2018-05-08T12:33:02.570Z,27.59
2018-05-08T12:34:12.344Z,27.56
2018-05-08T12:35:22.362Z,27.75
2018-05-08T12:36:32.368Z,27.65
2018-05-08T12:37:42.093Z,27.65
2018-05-08T12:38:52.093Z,27.84
2018-05-08T12:40:02.107Z,28.32
2018-05-08T12:41:11.836Z,28.32
2018-05-08T12:42:21.828Z,28.32
2018-05-08T12:43:31.839Z,28.4
2018-05-08T12:44:41.602Z,28.4
2018-05-08T12:45:51.591Z,28.59
2018-05-08T12:47:01.335Z,27.73
2018-05-08T12:48:11.353Z,27.55
2018-05-08T12:49:21.359Z,27.76
2018-05-08T12:50:31.258Z,27.47
2018-05-08T12:51:41.409Z,27.55
2018-05-08T12:52:51.151Z,27.64
2018-05-08T12:54:00.896Z,27.54
2018-05-08T12:55:10.622Z,26.67
2018-05-08T12:56:20.637Z,27.08
2018-05-08T12:57:30.644Z,26.18
2018-05-08T12:58:40.645Z,26.21
2018-05-08T12:59:50.639Z,26.49
2018-05-08T13:01:00.687Z,26.38
2018-05-08T13:02:10.712Z,25.61
2018-05-08T13:03:20.219Z,25.23
2018-05-08T13:04:29.977Z,25.04
2018-05-08T13:05:39.975Z,25.52
2018-05-08T13:06:49.980Z,25.33
2018-05-08T13:07:59.969Z,24.74
2018-05-08T13:09:09.983Z,24.26
2018-05-08T13:10:19.999Z,23.3
2018-05-08T13:11:29.743Z,23.11
2018-05-08T13:12:39.741Z,23.21
2018-05-08T13:13:49.500Z,23.39
2018-05-08T13:14:59.510Z,24.36
2018-05-08T13:16:09.526Z,24.62
2018-05-08T13:17:19.526Z,25.12
2018-05-08T13:18:29.541Z,24.53
2018-05-08T13:19:39.522Z,24.25
2018-05-08T13:20:49.267Z,23.77
2018-05-08T13:21:59.309Z,24.46
2018-05-08T13:23:09.052Z,24.16
2018-05-08T13:24:19.193Z,23.88
2018-05-08T13:25:29.347Z,23.3
2018-05-08T13:26:39.503Z,22.41
2018-05-08T13:27:49.527Z,22.33
2018-05-08T13:28:59.778Z,22.44
2018-05-08T13:30:09.790Z,22.53
2018-05-08T13:31:19.807Z,23.3
2018-05-08T13:32:29.557Z,23.19
2018-05-08T13:33:39.332Z,23.08
2018-05-08T13:34:49.325Z,23.36
2018-05-08T13:35:59.382Z,22.58
2018-05-08T13:37:09.369Z,23.27
2018-05-08T13:38:19.519Z,23.47
2018-05-08T13:39:29.513Z,23.83
2018-05-08T13:40:39.525Z,23.36
2018-05-08T13:41:49.531Z,23.83
2018-05-08T13:42:59.430Z,24.12
2018-05-08T13:44:09.164Z,25.27
2018-05-08T13:45:19.168Z,25.26
2018-05-08T13:46:29.156Z,24.6
2018-05-08T13:47:38.364Z,23.44
2018-05-08T13:48:47.839Z,22.98
2018-05-08T13:49:57.847Z,22.12
2018-05-08T13:51:07.882Z,22.14
2018-05-08T13:52:17.618Z,21.56
2018-05-08T13:53:27.621Z,22.33
2018-05-08T13:54:37.641Z,22.23
2018-05-08T13:55:47.390Z,22.13
2018-05-08T13:56:57.389Z,22.33
2018-05-08T13:58:07.391Z,22.31
2018-05-08T13:59:17.142Z,22.89
2018-05-08T14:00:27.133Z,23.28
2018-05-08T14:01:36.877Z,23.64
2018-05-08T14:02:46.620Z,24.32
2018-05-08T14:03:56.646Z,24.6
2018-05-08T14:05:06.660Z,25.36
2018-05-08T14:06:16.712Z,24.4
2018-05-08T14:07:26.723Z,24.41
2018-05-08T14:08:36.492Z,24.12
2018-05-08T14:09:46.225Z,24.22
2018-05-08T14:10:55.961Z,24.12
2018-05-08T14:12:05.961Z,23.63
2018-05-08T14:13:16.050Z,23.64
2018-05-08T14:14:26.061Z,23.46
2018-05-08T14:15:36.062Z,23.27
2018-05-08T14:16:46.074Z,23.37
2018-05-08T14:17:55.853Z,23.57
2018-05-08T14:19:05.579Z,24.22
2018-05-08T14:20:15.348Z,24.41
2018-05-08T14:21:25.095Z,25.18
2018-05-08T14:22:35.101Z,24.8
2018-05-08T14:23:44.587Z,24.81
2018-05-08T14:24:54.350Z,24.9
2018-05-08T14:26:04.312Z,24.9
2018-05-08T14:27:14.060Z,25.18
2018-05-08T14:28:24.073Z,25.27
2018-05-08T14:29:33.545Z,25.2
2018-05-08T14:30:43.546Z,25.2
2018-05-08T14:31:53.549Z,25.1
2018-05-08T14:33:03.294Z,25.21
2018-05-08T14:34:13.302Z,24.71
2018-05-08T14:35:23.042Z,24.22
2018-05-08T14:36:33.038Z,24.04
2018-05-08T14:37:43.038Z,24.24
2018-05-08T14:38:53.041Z,24.22
2018-05-08T14:40:02.765Z,24.42
2018-05-08T14:41:12.510Z,24.32
2018-05-08T14:42:22.518Z,24.52
2018-05-08T14:43:32.542Z,25.1
2018-05-08T14:44:42.881Z,25.1
2018-05-08T14:45:52.631Z,24.71
2018-05-08T14:47:02.625Z,25.11
2018-05-08T14:48:12.389Z,25.29
2018-05-08T14:49:22.240Z,26.15
2018-05-08T14:50:32.512Z,26.14
2018-05-08T14:51:42.524Z,26.14
2018-05-08T14:52:52.259Z,25.67
2018-05-08T14:54:02.361Z,25.27
2018-05-08T14:55:12.357Z,25.76
2018-05-08T14:56:22.352Z,25.86
2018-05-08T14:57:32.367Z,25.36
2018-05-08T14:58:42.380Z,25.25
2018-05-08T14:59:52.276Z,25.65
2018-05-08T15:01:02.018Z,25.16
2018-05-08T15:02:12.094Z,25.26
2018-05-08T15:03:22.110Z,25.36